createdAt,value
2022-12-25T00:00:40.038Z,12.63
2022-12-25T00:03:58.800Z,13.05
2022-12-25T00:07:15.855Z,13.03
2022-12-25T00:10:32.461Z,13.28
2022-12-25T00:13:50.103Z,12.53
2022-12-25T00:17:06.604Z,13.08
2022-12-25T00:20:23.096Z,13.53
2022-12-25T00:23:40.471Z,13.13
2022-12-25T00:26:56.523Z,13.93
2022-12-25T00:30:14.839Z,12.83
2022-12-25T00:33:30.892Z,13.43
2022-12-25T00:36:46.970Z,13.45
2022-12-25T00:40:03.267Z,12.43
2022-12-25T00:43:19.797Z,13.30
2022-12-25T00:46:35.973Z,13.60
2022-12-25T00:49:52.932Z,12.78
2022-12-25T00:53:09.026Z,14.10
2022-12-25T00:56:25.339Z,12.88
2022-12-25T00:59:42.602Z,12.53
2022-12-25T01:02:59.292Z,13.30
2022-12-25T01:06:19.351Z,13.03
2022-12-25T01:09:49.603Z,13.98
2022-12-25T01:13:06.017Z,15.48
2022-12-25T01:16:22.243Z,14.35
2022-12-25T01:19:38.424Z,14.90
2022-12-25T01:22:55.498Z,14.23
2022-12-25T01:26:17.052Z,15.08
2022-12-25T01:29:33.137Z,14.23
2022-12-25T01:32:49.279Z,14.08
2022-12-25T01:36:05.509Z,14.20
2022-12-25T01:39:21.579Z,14.30
2022-12-25T01:42:38.192Z,13.85
2022-12-25T01:45:54.760Z,13.40
2022-12-25T01:49:15.771Z,13.63
2022-12-25T01:52:33.929Z,14.40
2022-12-25T01:55:52.937Z,15.05
2022-12-25T01:59:10.061Z,13.40
2022-12-25T02:02:26.429Z,14.03
2022-12-25T02:05:44.192Z,13.73
2022-12-25T02:09:00.636Z,12.63
2022-12-25T02:12:20.739Z,12.70
2022-12-25T02:15:43.224Z,13.73
2022-12-25T02:19:03.683Z,13.03
2022-12-25T02:22:26.692Z,13.75
2022-12-25T02:25:54.130Z,13.60
2022-12-25T02:29:16.659Z,13.25
2022-12-25T02:32:36.921Z,13.73
2022-12-25T02:35:56.892Z,13.08
2022-12-25T02:39:33.566Z,12.35
2022-12-25T02:43:09.435Z,13.10
2022-12-25T02:46:48.817Z,12.15
2022-12-25T02:53:53.451Z,11.63
2022-12-25T02:57:28.361Z,14.00
2022-12-25T03:01:03.082Z,12.10
2022-12-25T03:04:37.213Z,11.23
2022-12-25T03:07:55.076Z,13.03
2022-12-25T03:11:28.385Z,12.10
2022-12-25T03:14:58.795Z,11.75
2022-12-25T03:18:19.488Z,12.78
2022-12-25T03:21:50.103Z,12.33
2022-12-25T03:25:20.595Z,12.53
2022-12-25T03:28:37.910Z,12.78
2022-12-25T03:31:59.060Z,12.80
2022-12-25T03:35:29.136Z,12.25
2022-12-25T03:39:05.582Z,12.98
2022-12-25T03:42:49.993Z,12.53
2022-12-25T03:46:24.076Z,13.48
2022-12-25T03:49:58.891Z,13.20
2022-12-25T03:53:34.104Z,13.23
2022-12-25T03:57:05.929Z,14.38
2022-12-25T04:00:37.894Z,13.85
2022-12-25T04:04:08.095Z,13.05
2022-12-25T04:07:37.997Z,13.35
2022-12-25T04:11:08.276Z,13.03
2022-12-25T04:14:38.321Z,12.38
2022-12-25T04:18:10.277Z,12.98
2022-12-25T04:21:40.631Z,12.53
2022-12-25T04:25:10.792Z,12.53
2022-12-25T04:28:41.073Z,13.85
2022-12-25T04:32:11.287Z,12.50
2022-12-25T04:35:52.828Z,12.48
2022-12-25T04:39:08.932Z,11.60
2022-12-25T04:42:25.306Z,12.98
2022-12-25T04:45:41.697Z,13.03
2022-12-25T04:48:57.838Z,12.73
2022-12-25T04:52:14.239Z,12.35
2022-12-25T04:55:30.225Z,12.25
2022-12-25T04:58:46.858Z,11.60
2022-12-25T05:02:02.949Z,13.18
2022-12-25T05:05:19.518Z,12.33
2022-12-25T05:08:36.021Z,13.28
2022-12-25T05:11:52.160Z,13.38
2022-12-25T05:15:08.470Z,12.93
2022-12-25T05:18:25.002Z,13.35
2022-12-25T05:21:41.352Z,13.93
2022-12-25T05:24:57.588Z,13.88
2022-12-25T05:28:14.711Z,12.18
2022-12-25T05:31:31.411Z,12.68
2022-12-25T05:34:47.700Z,11.45
2022-12-25T05:38:04.051Z,11.90
2022-12-25T05:41:20.316Z,13.55
2022-12-25T05:44:36.373Z,13.33
2022-12-25T05:47:52.633Z,13.80
2022-12-25T05:51:14.667Z,13.80
2022-12-25T05:54:31.034Z,12.53
2022-12-25T05:57:47.297Z,13.40
2022-12-25T06:01:03.855Z,13.28
2022-12-25T06:04:20.036Z,13.28
2022-12-25T06:07:36.475Z,13.33
2022-12-25T06:10:52.650Z,13.05
2022-12-25T06:14:08.863Z,13.48
2022-12-25T06:17:25.038Z,14.40
2022-12-25T06:20:41.526Z,13.08
2022-12-25T06:23:57.939Z,13.80
2022-12-25T06:27:14.207Z,13.45
2022-12-25T06:30:30.209Z,13.75
2022-12-25T06:33:47.203Z,13.20
2022-12-25T06:37:03.340Z,13.45
2022-12-25T06:40:21.341Z,13.45
2022-12-25T06:43:37.379Z,13.53
2022-12-25T06:46:53.603Z,13.18
2022-12-25T06:50:10.162Z,13.50
2022-12-25T06:53:32.285Z,13.20
2022-12-25T06:56:47.557Z,12.98
2022-12-25T07:00:04.383Z,13.23
2022-12-25T07:03:24.970Z,12.95
2022-12-25T07:06:41.245Z,12.58
2022-12-25T07:09:57.331Z,12.00
2022-12-25T07:13:13.465Z,11.90
2022-12-25T07:16:30.795Z,12.20
2022-12-25T07:19:47.132Z,11.90
2022-12-25T07:23:03.202Z,12.73
2022-12-25T07:26:20.537Z,12.23
2022-12-25T07:29:36.650Z,11.85
2022-12-25T07:32:53.307Z,12.10
2022-12-25T07:36:13.068Z,11.53
2022-12-25T07:42:44.333Z,11.80
2022-12-25T07:46:06.261Z,12.15
2022-12-25T07:49:23.533Z,11.88
2022-12-25T07:52:43.487Z,11.20
2022-12-25T07:56:05.956Z,11.60
2022-12-25T07:59:22.168Z,10.78
2022-12-25T08:02:38.641Z,11.55
2022-12-25T08:05:55.027Z,10.65
2022-12-25T08:09:16.477Z,10.70
2022-12-25T08:12:32.535Z,11.78
2022-12-25T08:15:49.342Z,11.20
2022-12-25T08:19:05.420Z,11.95
2022-12-25T08:22:21.670Z,11.53
2022-12-25T08:25:38.586Z,12.20
2022-12-25T08:28:55.663Z,11.70
2022-12-25T08:32:11.818Z,11.70
2022-12-25T08:35:28.298Z,11.98
2022-12-25T08:38:44.774Z,10.80
2022-12-25T08:42:01.015Z,10.88
2022-12-25T08:45:18.993Z,11.48
2022-12-25T08:48:35.569Z,11.73
2022-12-25T08:51:53.749Z,10.48
2022-12-25T08:55:10.259Z,10.60
2022-12-25T08:58:26.329Z,10.03
2022-12-25T09:01:42.570Z,10.65
2022-12-25T09:04:58.811Z,11.20
2022-12-25T09:08:15.959Z,9.65
2022-12-25T09:11:32.241Z,9.45
2022-12-25T09:14:48.974Z,10.15
2022-12-25T09:18:05.318Z,10.43
2022-12-25T09:21:23.585Z,10.65
2022-12-25T09:24:40.067Z,9.65
2022-12-25T09:27:56.229Z,10.03
2022-12-25T09:31:13.718Z,9.85
2022-12-25T09:34:29.877Z,9.75
2022-12-25T09:37:46.016Z,9.80
2022-12-25T09:41:10.979Z,10.93
2022-12-25T09:44:31.526Z,9.88
2022-12-25T09:47:51.848Z,10.25
2022-12-25T09:51:12.216Z,10.50
2022-12-25T09:54:34.275Z,11.03
2022-12-25T09:57:50.661Z,10.30
2022-12-25T10:01:12.099Z,9.43
2022-12-25T10:04:41.984Z,9.73
2022-12-25T10:08:04.241Z,38.23
2022-12-25T10:11:29.985Z,15.45
2022-12-25T10:14:51.795Z,9.63
2022-12-25T10:18:55.163Z,9.65
2022-12-25T10:22:17.283Z,9.38
2022-12-25T10:25:34.712Z,8.33
2022-12-25T10:28:55.949Z,7.60
2022-12-25T10:32:12.472Z,7.20
2022-12-25T10:35:33.614Z,5.80
2022-12-25T10:38:49.813Z,4.73
2022-12-25T10:42:32.742Z,5.48
2022-12-25T10:45:57.554Z,4.63
2022-12-25T10:49:19.120Z,4.30
2022-12-25T10:52:37.058Z,4.50
2022-12-25T10:56:02.010Z,4.20
2022-12-25T10:59:20.330Z,4.05
2022-12-25T11:02:40.784Z,4.10
2022-12-25T11:05:59.548Z,4.03
2022-12-25T11:09:23.452Z,3.78
2022-12-25T11:12:43.984Z,4.25
2022-12-25T11:16:11.345Z,5.63
2022-12-25T11:19:58.881Z,9.45
2022-12-25T11:23:24.101Z,6.68
2022-12-25T11:26:53.613Z,5.85
2022-12-25T11:30:16.056Z,5.95
2022-12-25T11:33:37.036Z,5.70
2022-12-25T11:36:56.369Z,5.25
2022-12-25T11:40:21.481Z,4.93
2022-12-25T11:43:41.711Z,3.83
2022-12-25T11:46:58.682Z,4.10
2022-12-25T11:50:24.296Z,4.60
2022-12-25T11:53:45.083Z,4.78
2022-12-25T11:57:04.171Z,5.05
2022-12-25T12:00:25.401Z,16.50
2022-12-25T12:03:45.809Z,6.03
2022-12-25T12:07:07.038Z,4.88
2022-12-25T12:10:26.994Z,4.98
2022-12-25T12:13:50.531Z,5.48
2022-12-25T12:17:07.592Z,5.23
2022-12-25T12:20:36.381Z,5.30
2022-12-25T12:24:03.120Z,5.43
2022-12-25T12:27:30.576Z,5.83
2022-12-25T12:30:47.137Z,5.25
2022-12-25T12:34:06.565Z,5.43
2022-12-25T12:37:28.019Z,5.85
2022-12-25T12:40:48.571Z,5.33
2022-12-25T12:44:09.416Z,5.73
2022-12-25T12:47:44.807Z,5.70
2022-12-25T12:51:12.968Z,6.73
2022-12-25T12:54:32.656Z,5.80
2022-12-25T12:57:49.356Z,5.10
2022-12-25T13:01:22.886Z,5.48
2022-12-25T13:05:04.876Z,6.55
2022-12-25T13:08:34.317Z,5.60
2022-12-25T13:11:52.352Z,6.50
2022-12-25T13:15:09.307Z,5.98
2022-12-25T13:18:26.288Z,6.38
2022-12-25T13:21:43.581Z,6.43
2022-12-25T13:25:08.509Z,6.55
2022-12-25T13:28:26.855Z,6.90
2022-12-25T13:31:45.556Z,6.28
2022-12-25T13:35:03.044Z,5.73
2022-12-25T13:38:24.908Z,5.68
2022-12-25T13:42:02.283Z,5.48
2022-12-25T13:45:34.509Z,6.98
2022-12-25T13:48:50.814Z,7.30
2022-12-25T13:52:17.401Z,6.73
2022-12-25T13:55:35.830Z,7.03
2022-12-25T13:58:54.542Z,6.43
2022-12-25T14:02:11.598Z,6.30
2022-12-25T14:05:42.856Z,7.20
2022-12-25T14:08:58.603Z,8.43
2022-12-25T14:12:19.337Z,7.28
2022-12-25T14:15:37.170Z,7.33
2022-12-25T14:19:03.395Z,7.88
2022-12-25T14:22:26.608Z,8.50
2022-12-25T14:25:48.650Z,7.95
2022-12-25T14:29:16.836Z,10.58
2022-12-25T14:32:32.906Z,7.45
2022-12-25T14:35:49.456Z,7.33
2022-12-25T14:39:12.422Z,7.28
2022-12-25T14:42:31.714Z,7.60
2022-12-25T14:49:11.712Z,7.43
2022-12-25T14:52:33.741Z,7.38
2022-12-25T14:55:53.335Z,7.90
2022-12-25T14:59:10.938Z,8.60
2022-12-25T15:02:28.404Z,9.43
2022-12-25T15:05:47.184Z,9.93
2022-12-25T15:09:10.730Z,9.63
2022-12-25T15:12:27.107Z,8.28
2022-12-25T15:15:44.413Z,8.58
2022-12-25T15:19:02.753Z,9.60
2022-12-25T15:22:22.323Z,9.45
2022-12-25T15:25:38.743Z,9.33
2022-12-25T15:28:55.044Z,9.85
2022-12-25T15:32:11.663Z,9.55
2022-12-25T15:35:29.851Z,9.50
2022-12-25T15:38:46.109Z,10.35
2022-12-25T15:42:17.696Z,10.53
2022-12-25T15:45:36.421Z,10.10
2022-12-25T15:48:52.640Z,11.18
2022-12-25T15:52:08.945Z,12.95
2022-12-25T15:55:26.052Z,11.55
2022-12-25T15:58:42.141Z,10.08
2022-12-25T16:02:01.359Z,10.53
2022-12-25T16:08:33.510Z,12.20
2022-12-25T16:11:51.147Z,14.88
2022-12-25T16:15:07.559Z,19.40
2022-12-25T16:18:24.765Z,17.73
2022-12-25T16:21:46.121Z,18.33
2022-12-25T16:25:03.102Z,27.20
2022-12-25T16:28:21.190Z,19.93
2022-12-25T16:31:37.780Z,25.50
2022-12-25T16:34:58.013Z,24.15
2022-12-25T16:38:14.181Z,26.38
2022-12-25T16:41:30.465Z,24.18
2022-12-25T16:44:47.309Z,27.38
2022-12-25T16:48:03.508Z,29.10
2022-12-25T16:51:22.179Z,17.95
2022-12-25T16:54:38.709Z,12.43
2022-12-25T16:57:55.110Z,11.78
2022-12-25T17:01:17.495Z,13.43
2022-12-25T17:04:34.817Z,14.20
2022-12-25T17:07:51.355Z,14.03
2022-12-25T17:11:11.149Z,14.88
2022-12-25T17:14:27.787Z,36.53
2022-12-25T17:17:44.035Z,37.68
2022-12-25T17:21:03.632Z,30.00
2022-12-25T17:24:20.799Z,23.13
2022-12-25T17:27:36.925Z,22.28
2022-12-25T17:30:53.188Z,24.03
2022-12-25T17:34:11.357Z,22.70
2022-12-25T17:37:27.874Z,26.78
2022-12-25T17:40:43.976Z,35.03
2022-12-25T17:44:00.361Z,34.55
2022-12-25T17:47:16.275Z,36.08
2022-12-25T17:50:37.389Z,34.03
2022-12-25T17:53:53.969Z,34.55
2022-12-25T17:57:09.942Z,33.20
2022-12-25T18:00:27.740Z,32.95
2022-12-25T18:03:44.240Z,31.80
2022-12-25T18:07:00.550Z,31.60
2022-12-25T18:10:19.835Z,29.80
2022-12-25T18:13:41.317Z,30.25
2022-12-25T18:16:57.982Z,31.23
2022-12-25T18:20:16.982Z,31.23
2022-12-25T18:27:56.181Z,28.85
2022-12-25T18:31:22.079Z,32.15
2022-12-25T18:34:38.740Z,32.70
2022-12-25T18:37:56.731Z,33.78
2022-12-25T18:41:15.280Z,34.33
2022-12-25T18:44:41.513Z,35.13
2022-12-25T18:48:34.262Z,34.38
2022-12-25T18:52:50.026Z,35.08
2022-12-25T18:55:29.296Z,36.23
2022-12-25T18:58:50.296Z,36.35
2022-12-25T19:02:06.803Z,37.15
2022-12-25T19:05:27.322Z,40.10
2022-12-25T19:08:44.129Z,37.23
2022-12-25T19:12:03.125Z,36.65
2022-12-25T19:15:20.768Z,37.45
2022-12-25T19:18:37.476Z,37.50
2022-12-25T19:21:59.528Z,38.03
2022-12-25T19:25:19.454Z,37.08
2022-12-25T19:31:49.931Z,37.93
2022-12-25T19:35:07.226Z,37.80
2022-12-25T19:38:23.829Z,37.90
2022-12-25T19:41:40.452Z,38.30
2022-12-25T19:44:56.695Z,38.00
2022-12-25T19:48:14.014Z,36.58
2022-12-25T19:51:35.556Z,37.10
2022-12-25T19:54:53.405Z,37.30
2022-12-25T19:58:10.989Z,36.73
2022-12-25T20:01:30.895Z,72.35
2022-12-25T20:04:47.509Z,43.30
2022-12-25T20:08:17.650Z,39.05
2022-12-25T20:12:03.048Z,38.35
2022-12-25T20:17:15.583Z,38.25
2022-12-25T20:19:08.702Z,39.95
2022-12-25T20:22:24.846Z,38.75
2022-12-25T20:25:41.427Z,37.93
2022-12-25T20:28:58.051Z,36.58
2022-12-25T20:32:15.001Z,35.83
2022-12-25T20:35:34.373Z,35.28
2022-12-25T20:38:50.742Z,39.85
2022-12-25T20:42:06.994Z,38.78
2022-12-25T20:45:23.889Z,41.38
2022-12-25T20:48:40.732Z,39.28
2022-12-25T20:52:03.020Z,41.00
2022-12-25T20:55:21.048Z,42.90
2022-12-25T20:58:40.291Z,38.95
2022-12-25T21:01:57.575Z,175.38
2022-12-25T21:05:16.907Z,47.63
2022-12-25T21:08:34.669Z,38.90
2022-12-25T21:11:50.901Z,38.08
2022-12-25T21:15:14.983Z,36.85
2022-12-25T21:18:29.117Z,37.33
2022-12-25T21:25:02.071Z,36.35
2022-12-25T21:28:35.147Z,35.85
2022-12-25T21:32:05.506Z,37.53
2022-12-25T21:35:22.238Z,38.40
2022-12-25T21:38:38.446Z,39.08
2022-12-25T21:41:57.387Z,40.63
2022-12-25T21:45:15.466Z,38.83
2022-12-25T21:48:32.923Z,39.20
2022-12-25T21:52:02.981Z,37.15
2022-12-25T21:55:19.891Z,39.13
2022-12-25T21:58:36.363Z,40.45
2022-12-25T22:01:54.001Z,39.68
2022-12-25T22:05:12.840Z,40.20
2022-12-25T22:08:28.852Z,39.80
2022-12-25T22:11:59.029Z,38.58
2022-12-25T22:15:20.683Z,39.00
2022-12-25T22:18:51.034Z,39.15
2022-12-25T22:22:07.224Z,38.55
2022-12-25T22:25:24.910Z,38.50
2022-12-25T22:28:41.022Z,38.03
2022-12-25T22:31:57.614Z,37.78
2022-12-25T22:35:17.404Z,37.38
2022-12-25T22:38:33.643Z,36.55
2022-12-25T22:41:50.318Z,36.55
2022-12-25T22:45:06.568Z,36.88
2022-12-25T22:48:22.885Z,37.43
2022-12-25T22:51:39.122Z,38.40
2022-12-25T22:54:55.555Z,37.55
2022-12-25T22:58:11.781Z,38.33
2022-12-25T23:01:29.498Z,39.38
2022-12-25T23:04:46.172Z,37.53
2022-12-25T23:08:02.337Z,39.18
2022-12-25T23:11:18.503Z,40.43
2022-12-25T23:14:44.223Z,39.13
2022-12-25T23:18:13.713Z,40.63
2022-12-25T23:25:11.826Z,41.03
2022-12-25T23:28:38.485Z,40.73
2022-12-25T23:31:54.802Z,41.03
2022-12-25T23:35:12.714Z,40.03
2022-12-25T23:38:28.878Z,40.43
2022-12-25T23:41:45.015Z,40.75
2022-12-25T23:45:01.242Z,41.75
2022-12-25T23:48:20.104Z,41.65
2022-12-25T23:51:36.363Z,42.93
2022-12-25T23:54:52.492Z,40.75
2022-12-25T23:58:08.926Z,43.65
